Aeroporto :
LOGIN :

Iscrizione | Disclaimer

   EN    FR    IT 

 










Sommario :    VFR   VFR Marginale   IFR   IFR Intensivo   IFR Molto Intensivo
Visibilità : 
Base nubi : 
>= 8 km
>= 3000ft
5 / 8 km
1000 / 3000 ft
1500m / 5 km
500 / 1000 ft
800 / 1500m
200 / 500 ft
< 800m
< 200 ft
Simboli :   Temporali  Nebbia  Neve Forte  Precipitazioni Forti  Vento > 20 kt
SIGMETs :   Varie  Temporali  Ghiacco  Turbolenza  Onda orograficha  Ceneri Vulcaniche







- Altitudine del aeroporto : 1302 ft
- Codice IATA : GNB
- Carte del aeroporto


LFLS - Grenoble / St. Geoirs

ULTIMO METAR :
  • 190900Z AUTO 08007KT 9999 RA FEW045 OVC068 06/05 Q1017 BECMG NSW

METARs OBSOLETI :
  • 190830Z AUTO 08005KT 9999 OVC066/// ///TCU 06/04 Q1018 BECMG OVC040
  • 190800Z AUTO 09006KT 9999 -RA OVC054/// ///TCU 06/04 Q1018 BECMG OVC040
  • 190730Z AUTO VRB02KT 9999 -RA BKN056 OVC066 07/03 Q1018 NOSIG
  • 190700Z AUTO 25006KT 9999 -RA BKN064 OVC076 07/03 Q1018 NOSIG
  • 190630Z AUTO 27003KT 230V310 9999 FEW060/// BKN084/// OVC120/// ///TCU 06/03 Q1018 BECMG OVC040

TAF TAF LFLS
Valido dal 19 a 09 ore il 20 a 09 ore UTC


190800Z 1909/2009 08006KT 8000 -RA OVC040
PROB40
TEMPO 1911/1914 26006KT 3000 RA SCT010 BKN015 OVC025
BECMG 1914/1916 NSW
PROB30
TEMPO 1918/1920 VRB15G25KT 5000 SHRA BKN030TCU
ATIS : +33 4 76 65 55 89
Nessun NOTAM noto per questo aeroporto.



MetMap, La meteo Aeronautica in un colpo d'occhio ! - Copyright ORBIFLY Dicembre 2007 - Disclaimer

ORBIFLY MET'MAP TEAM :

Programmazione e sviluppo : Alexandra Zaïnal
Concezione e sviluppo : Baudouin d'Aumeries
Co-Programmazione e sviluppo : Marc-Olivier Méhu
Supporto tecnico e logistico : Manuel Goepfert
Aiuto per la traduzione : Arnaldo La Scala

Contatto : metmap@orbifly.com




FONTI E CREDITI :

   NOAA